Murray, Utah
Current Conditions -  °F | °C
As of 4:53 PM on Sunday 23 Nov 2014 (Local Time) from KSLC Reporting Station
Broken Clouds Broken Clouds  
Wind Chill: 34°   Ceiling: 7000
Heat Index: 39°   Visibility: 10mi
Dew Point: 20°   Wind: 7mph
Humidity: 46%   Direction: 320°NW
Pressure: 30.23"   Gusts: NA
Location:  40.66°N, 111.88°W
Report Text: KSLC 232353Z 32006KT 10SM SCT045 BKN070 04/M07 A3023 RMK AO2 SLP243 T00391067 10050 20022 53004
Loading
Personal Weather Stations






























Interactive Weather Map New forecast layout! Learn more

10-Day Weather Forecast

Advertisements
Track Severe Weather on mobile